Time;durP1;ratioP1;P1;durP2;ratioP2;P2;SDS_P1;SDS_P2;PMS_P1;PMS_P2;Temp;Humidity;BMP_temperature;BMP_pressure;BME280_temperature;BME280_humidity;BME280_pressure;Samples;Min_cycle;Max_cycle;Signal;HPM_P1;HPM_P2
2023/12/20 00:01:24;;;;;;;;;2.00;2.00;;;;;7.68;93.64;101497.16;4934557;29;10634;-67
2023/12/20 00:03:51;;;;;;;;;1.00;1.00;;;;;7.67;94.00;101498.19;4933421;29;10631;-66
2023/12/20 00:06:17;;;;;;;;;2.75;1.75;;;;;7.68;93.98;101494.50;4934365;29;10702;-67
2023/12/20 00:08:44;;;;;;;;;0.50;0.50;;;;;7.69;93.67;101491.63;4934253;29;10678;-67
2023/12/20 00:11:10;;;;;;;;;1.00;1.00;;;;;7.68;93.87;101478.41;4933742;29;10742;-67
2023/12/20 00:13:37;;;;;;;;;5.00;1.50;;;;;7.65;93.71;101473.38;4934905;29;10642;-67
2023/12/20 00:16:04;;;;;;;;;1.50;1.50;;;;;7.66;92.95;101483.09;4933578;29;10570;-66
2023/12/20 00:18:30;;;;;;;;;3.25;0.75;;;;;7.63;92.75;101486.94;4933474;29;10490;-67
2023/12/20 00:20:56;;;;;;;;;0.25;0.00;;;;;7.58;93.39;101485.75;4933939;29;10708;-67
2023/12/20 00:23:23;;;;;;;;;2.00;1.25;;;;;7.52;93.38;101489.88;4931352;29;10635;-66
2023/12/20 00:25:50;;;;;;;;;0.25;0.25;;;;;7.57;92.91;101492.06;4930729;29;10650;-67
2023/12/20 00:28:16;;;;;;;;;2.75;1.00;;;;;7.57;92.85;101489.41;4930066;29;10557;-67
2023/12/20 00:30:43;;;;;;;;;1.00;0.00;;;;;7.58;93.08;101493.78;4934609;29;10501;-67
2023/12/20 00:33:09;;;;;;;;;3.50;1.50;;;;;7.57;92.92;101500.13;4930931;29;10567;-66
2023/12/20 00:35:36;;;;;;;;;1.00;0.50;;;;;7.59;92.64;101492.78;4933070;29;10499;-66
2023/12/20 00:38:04;;;;;;;;;2.00;2.00;;;;;7.61;92.82;101493.44;4934431;29;10575;-66
2023/12/20 00:40:31;;;;;;;;;1.00;1.00;;;;;7.59;92.89;101482.91;4933274;29;10471;-67
2023/12/20 00:42:58;;;;;;;;;0.00;0.00;;;;;7.60;92.50;101489.91;4921655;29;10561;-66
2023/12/20 00:45:24;;;;;;;;;1.00;1.00;;;;;7.59;92.66;101482.06;4931624;29;10628;-67
2023/12/20 00:47:50;;;;;;;;;1.00;1.00;;;;;7.58;92.09;101488.44;4924185;29;10561;-66
2023/12/20 00:50:17;;;;;;;;;2.75;1.00;;;;;7.60;91.91;101486.41;4934353;29;10608;-68
2023/12/20 00:52:44;;;;;;;;;1.00;1.00;;;;;7.58;92.29;101486.56;4932009;29;11299;-66
2023/12/20 00:55:10;;;;;;;;;6.50;1.00;;;;;7.60;92.40;101486.41;4933902;29;10511;-66
2023/12/20 00:57:37;;;;;;;;;1.50;1.50;;;;;7.60;92.46;101489.09;4930596;29;10547;-67
2023/12/20 01:00:05;;;;;;;;;1.25;1.25;;;;;7.62;92.66;101490.63;4934182;29;10635;-67
2023/12/20 01:02:32;;;;;;;;;2.25;1.50;;;;;7.62;91.77;101501.34;4926790;29;10611;-67
2023/12/20 01:04:58;;;;;;;;;0.75;0.75;;;;;7.53;91.94;101491.53;4933150;29;10767;-66
2023/12/20 01:07:25;;;;;;;;;1.00;1.00;;;;;7.54;91.92;101487.06;4933864;29;10705;-67
2023/12/20 01:09:51;;;;;;;;;3.25;2.00;;;;;7.54;91.79;101484.38;4930925;29;10787;-66
2023/12/20 01:12:20;;;;;;;;;2.00;1.00;;;;;7.57;91.84;101482.19;4933918;29;11374;-67
2023/12/20 01:14:46;;;;;;;;;6.50;1.75;;;;;7.58;91.91;101480.38;4932552;29;10698;-67
2023/12/20 01:17:13;;;;;;;;;3.50;2.50;;;;;7.60;91.88;101479.22;4933882;29;10703;-67
2023/12/20 01:19:39;;;;;;;;;2.50;2.50;;;;;7.57;91.77;101484.03;4926889;29;10802;-66
2023/12/20 01:22:06;;;;;;;;;5.50;3.75;;;;;7.52;92.04;101489.88;4932975;29;10824;-67
2023/12/20 01:24:32;;;;;;;;;3.25;3.25;;;;;7.57;91.32;101489.41;4933492;29;10791;-67
2023/12/20 01:26:59;;;;;;;;;2.00;2.00;;;;;7.53;91.46;101480.00;4933871;29;10778;-66
2023/12/20 01:29:25;;;;;;;;;1.50;1.50;;;;;7.54;91.59;101479.03;4933764;29;10831;-67
2023/12/20 01:31:52;;;;;;;;;1.75;1.75;;;;;7.54;91.49;101476.34;4933449;29;10700;-66
2023/12/20 01:34:18;;;;;;;;;1.50;1.50;;;;;7.58;91.74;101480.38;4932272;29;11042;-67
2023/12/20 01:36:45;;;;;;;;;2.00;2.00;;;;;7.55;90.69;101480.69;4934063;29;10682;-67
2023/12/20 01:39:11;;;;;;;;;2.25;1.50;;;;;7.55;91.12;101469.97;4945533;28;10772;-66
2023/12/20 01:41:53;;;;;;;;;4.50;2.00;;;;;7.56;91.34;101472.50;4936298;28;10562;-67
2023/12/20 01:44:19;;;;;;;;;1.25;1.25;;;;;7.58;91.30;101475.03;4934350;28;10705;-66
2023/12/20 01:46:47;;;;;;;;;1.25;1.00;;;;;7.63;92.08;101465.50;4930565;29;10690;-67
2023/12/20 01:49:14;;;;;;;;;5.00;2.75;;;;;7.60;91.15;101468.50;4931210;29;10606;-67
2023/12/20 01:51:42;;;;;;;;;5.00;2.00;;;;;7.61;91.11;101462.13;4932661;29;11594;-66
2023/12/20 01:54:09;;;;;;;;;3.25;2.00;;;;;7.65;91.31;101450.09;4929164;29;10760;-67
2023/12/20 01:56:35;;;;;;;;;3.25;3.25;;;;;7.56;91.12;101463.63;4932628;28;10559;-67
2023/12/20 01:59:04;;;;;;;;;3.00;2.75;;;;;7.50;91.88;101464.25;4931628;29;10637;-66
2023/12/20 02:01:30;;;;;;;;;2.50;2.50;;;;;7.50;92.09;101469.63;4931724;29;10638;-67
2023/12/20 02:03:57;;;;;;;;;3.50;3.00;;;;;7.52;91.52;101464.94;4932564;29;11367;-67
2023/12/20 02:06:28;;;;;;;;;3.75;3.00;;;;;7.49;91.24;101467.91;4933343;29;10771;-66
2023/12/20 02:08:55;;;;;;;;;3.50;3.00;;;;;7.51;91.22;101472.13;4927771;29;10646;-67
2023/12/20 02:11:22;;;;;;;;;2.00;2.00;;;;;7.47;90.80;101475.28;4951748;23;10679;-65
2023/12/20 02:13:48;;;;;;;;;2.50;2.50;;;;;7.48;90.85;101467.09;4951448;28;11509;-65
2023/12/20 02:16:15;;;;;;;;;4.00;3.00;;;;;7.44;90.96;101466.56;4950464;29;10713;-65
2023/12/20 02:18:43;;;;;;;;;3.00;1.75;;;;;7.51;90.66;101465.94;4952212;28;10806;-65
2023/12/20 02:21:10;;;;;;;;;1.00;1.00;;;;;7.51;90.60;101464.09;4947699;28;10811;-64
2023/12/20 02:23:36;;;;;;;;;2.00;2.00;;;;;7.46;91.00;101454.88;4951887;28;10651;-65
2023/12/20 02:26:04;;;;;;;;;5.00;3.75;;;;;7.40;91.09;101457.16;4946733;29;10716;-65
2023/12/20 02:28:32;;;;;;;;;3.00;2.00;;;;;7.43;90.47;101458.69;4952164;28;10638;-65
2023/12/20 02:30:58;;;;;;;;;1.50;1.50;;;;;7.52;90.30;101455.06;4951692;28;10629;-65
2023/12/20 02:33:25;;;;;;;;;2.00;2.00;;;;;7.50;90.17;101461.59;4952438;29;10804;-65
2023/12/20 02:35:52;;;;;;;;;1.25;1.00;;;;;7.53;90.50;101445.16;4946177;29;11474;-65
2023/12/20 02:38:19;;;;;;;;;3.75;2.00;;;;;7.56;90.14;101456.41;4952061;28;10701;-65
2023/12/20 02:40:45;;;;;;;;;2.25;2.25;;;;;7.55;90.27;101448.53;4952000;28;10644;-65
2023/12/20 02:43:15;;;;;;;;;2.00;1.25;;;;;7.60;90.71;101440.84;4951207;29;10536;-65
2023/12/20 02:45:42;;;;;;;;;1.50;1.00;;;;;7.58;90.41;101448.22;4943849;28;10535;-65
2023/12/20 02:48:09;;;;;;;;;1.00;1.00;;;;;7.57;90.45;101439.31;4950896;29;11378;-65
2023/12/20 02:50:35;;;;;;;;;2.00;1.00;;;;;7.62;90.22;101434.34;4960212;28;10679;-65
2023/12/20 02:53:02;;;;;;;;;4.50;3.00;;;;;7.57;89.98;101433.97;4945079;29;11410;-65
2023/12/20 02:55:28;;;;;;;;;6.50;3.50;;;;;7.53;90.37;101416.53;4944136;28;10712;-65
2023/12/20 02:57:55;;;;;;;;;2.00;1.25;;;;;7.54;89.41;101420.09;4947108;29;10559;-65
2023/12/20 03:00:21;;;;;;;;;2.50;2.00;;;;;7.58;89.80;101411.56;4950955;28;10674;-65
2023/12/20 03:02:48;;;;;;;;;3.25;2.00;;;;;7.58;90.01;101416.91;4966578;28;10686;-65
2023/12/20 03:05:14;;;;;;;;;2.00;2.00;;;;;7.61;89.89;101410.38;4951611;29;10554;-65
2023/12/20 03:07:41;;;;;;;;;3.00;2.00;;;;;7.51;89.80;101409.69;4951854;28;11788;-65
2023/12/20 03:10:09;;;;;;;;;2.50;1.50;;;;;7.50;89.14;101406.16;4940322;29;10704;-64
2023/12/20 03:12:45;;;;;;;;;2.25;1.75;;;;;7.52;89.46;101409.50;4946036;29;10560;-65
2023/12/20 03:15:12;;;;;;;;;3.50;2.00;;;;;7.47;89.77;101403.81;4953149;28;10689;-65
2023/12/20 03:17:38;;;;;;;;;4.00;3.00;;;;;7.45;89.20;101400.44;4948402;28;10656;-65
2023/12/20 03:20:06;;;;;;;;;4.00;2.75;;;;;7.49;89.24;101419.69;4955275;28;10690;-65
2023/12/20 03:22:33;;;;;;;;;3.25;1.50;;;;;7.50;89.16;101405.34;4951683;28;10678;-65
2023/12/20 03:24:59;;;;;;;;;7.00;6.00;;;;;7.36;89.41;101401.41;4950123;28;10715;-65
2023/12/20 03:27:26;;;;;;;;;1.25;1.25;;;;;7.40;89.31;101406.25;4961708;28;10776;-65
2023/12/20 03:29:52;;;;;;;;;4.25;3.50;;;;;7.38;89.56;101412.81;4953498;28;10678;-65
2023/12/20 03:32:18;;;;;;;;;2.25;1.00;;;;;7.40;89.04;101413.47;4961476;28;10758;-65
2023/12/20 03:34:45;;;;;;;;;3.00;2.00;;;;;7.40;89.51;101408.13;4955571;28;10699;-65
2023/12/20 03:37:12;;;;;;;;;7.00;3.00;;;;;7.40;89.13;101425.00;4949577;28;10693;-65
2023/12/20 03:39:38;;;;;;;;;2.00;1.00;;;;;7.46;89.67;101436.13;4952155;28;10768;-65
2023/12/20 03:42:05;;;;;;;;;2.00;2.00;;;;;7.40;89.75;101438.41;4957842;28;10779;-65
2023/12/20 03:44:31;;;;;;;;;2.00;1.00;;;;;7.41;90.21;101429.41;4951377;28;10636;-65
2023/12/20 03:46:58;;;;;;;;;4.75;3.00;;;;;7.46;89.67;101425.41;4952528;28;10712;-65
2023/12/20 03:49:24;;;;;;;;;3.00;1.75;;;;;7.47;89.29;101424.41;4951507;28;11444;-65
2023/12/20 03:51:51;;;;;;;;;6.00;5.00;;;;;7.47;89.46;101419.88;4949755;28;10715;-65
2023/12/20 03:54:17;;;;;;;;;2.00;2.00;;;;;7.43;89.76;101419.34;4942973;28;10700;-65
2023/12/20 03:56:44;;;;;;;;;4.00;4.00;;;;;7.41;89.49;101426.72;4953838;28;10638;-65
2023/12/20 03:59:10;;;;;;;;;1.75;1.75;;;;;7.46;89.27;101406.66;4952418;28;10642;-65
2023/12/20 04:01:37;;;;;;;;;2.00;2.00;;;;;7.41;89.60;101405.28;4954580;28;10700;-65
2023/12/20 04:04:03;;;;;;;;;2.00;2.00;;;;;7.41;89.89;101407.09;4953858;28;10561;-65
2023/12/20 04:06:30;;;;;;;;;6.00;1.00;;;;;7.43;89.88;101413.16;4954190;28;10555;-65
2023/12/20 04:08:57;;;;;;;;;3.00;2.00;;;;;7.37;89.59;101401.25;4953945;28;10514;-65
2023/12/20 04:11:23;;;;;;;;;3.75;2.75;;;;;7.34;89.62;101398.06;4953252;28;10839;-64
2023/12/20 04:13:50;;;;;;;;;1.75;1.75;;;;;7.36;89.92;101399.56;4950299;28;10700;-65
2023/12/20 04:16:16;;;;;;;;;4.50;3.00;;;;;7.47;89.73;101394.94;4953842;28;10637;-65
2023/12/20 04:18:43;;;;;;;;;2.25;2.00;;;;;7.43;89.10;101394.41;4954505;28;10729;-64
2023/12/20 04:21:09;;;;;;;;;4.50;1.50;;;;;7.47;89.33;101393.09;4953122;28;10643;-65
2023/12/20 04:23:36;;;;;;;;;1.75;1.75;;;;;7.51;89.40;101394.44;4945187;28;10692;-65
2023/12/20 04:26:03;;;;;;;;;2.25;2.00;;;;;7.48;89.55;101396.59;4966570;28;10754;-65
2023/12/20 04:28:32;;;;;;;;;5.25;3.00;;;;;7.43;89.22;101397.09;4957582;28;10640;-65
2023/12/20 04:30:59;;;;;;;;;4.25;2.25;;;;;7.50;89.18;101397.28;4956875;28;10560;-65
2023/12/20 04:33:25;;;;;;;;;3.75;2.00;;;;;7.40;89.38;101384.00;4967076;28;10731;-65
2023/12/20 04:35:52;;;;;;;;;2.50;1.25;;;;;7.47;89.39;101387.72;4948116;28;10721;-65
2023/12/20 04:38:18;;;;;;;;;2.75;1.00;;;;;7.50;89.12;101387.41;4953872;28;10618;-65
2023/12/20 04:40:45;;;;;;;;;3.00;2.50;;;;;7.45;88.91;101384.34;4952715;28;10819;-65
2023/12/20 04:43:11;;;;;;;;;5.00;1.50;;;;;7.44;89.33;101370.13;4948959;28;11401;-65
2023/12/20 04:45:38;;;;;;;;;5.00;4.50;;;;;7.40;89.02;101363.41;4940791;28;10733;-65
2023/12/20 04:48:05;;;;;;;;;1.25;1.25;;;;;7.43;88.70;101363.09;4967516;28;11279;-65
2023/12/20 04:50:31;;;;;;;;;3.50;3.50;;;;;7.43;88.80;101375.66;4953508;28;10587;-65
2023/12/20 04:52:58;;;;;;;;;2.00;1.00;;;;;7.43;88.46;101373.81;4953255;28;10696;-65
2023/12/20 04:55:25;;;;;;;;;1.75;1.25;;;;;7.46;88.60;101369.16;4949001;28;10722;-65
2023/12/20 04:57:51;;;;;;;;;6.00;3.00;;;;;7.48;88.74;101373.31;4951787;28;10595;-65
2023/12/20 05:00:18;;;;;;;;;3.00;2.75;;;;;7.51;88.83;101374.84;4952874;28;10610;-65
2023/12/20 05:02:45;;;;;;;;;2.50;2.00;;;;;7.47;88.50;101378.84;4960095;28;11425;-65
2023/12/20 05:05:11;;;;;;;;;5.00;2.50;;;;;7.47;88.67;101382.38;4953153;28;10656;-64
2023/12/20 05:07:38;;;;;;;;;4.50;2.00;;;;;7.51;88.67;101383.72;4952132;28;10663;-65
2023/12/20 05:10:05;;;;;;;;;1.00;1.00;;;;;7.51;88.46;101386.41;4944906;28;11446;-65
2023/12/20 05:12:32;;;;;;;;;3.50;3.25;;;;;7.53;88.17;101383.56;4955373;28;10599;-65
2023/12/20 05:14:58;;;;;;;;;2.25;2.00;;;;;7.51;88.61;101386.41;4955016;28;10793;-65
2023/12/20 05:17:25;;;;;;;;;3.25;3.25;;;;;7.52;88.87;101395.28;4953094;28;10682;-65
2023/12/20 05:19:51;;;;;;;;;5.00;3.00;;;;;7.55;88.52;101389.59;4943075;28;10617;-65
2023/12/20 05:22:21;;;;;;;;;5.25;2.75;;;;;7.56;88.60;101384.06;4947282;28;11437;-65
2023/12/20 05:24:48;;;;;;;;;3.25;1.00;;;;;7.52;88.97;101382.72;4955103;28;11550;-65
2023/12/20 05:27:14;;;;;;;;;1.75;1.75;;;;;7.54;88.21;101379.91;4951974;28;10564;-65
2023/12/20 05:29:41;;;;;;;;;2.50;2.50;;;;;7.53;88.63;101375.53;4955652;28;10616;-65
2023/12/20 05:32:07;;;;;;;;;4.75;2.25;;;;;7.57;88.85;101383.06;4951115;28;10710;-66
2023/12/20 05:34:34;;;;;;;;;6.50;5.00;;;;;7.55;88.35;101379.72;4942710;28;10789;-65
2023/12/20 05:37:01;;;;;;;;;5.25;2.00;;;;;7.58;88.33;101379.41;4951783;28;10488;-65
2023/12/20 05:39:28;;;;;;;;;3.00;2.50;;;;;7.58;88.04;101371.38;4948738;28;10609;-65
2023/12/20 05:41:54;;;;;;;;;2.50;2.00;;;;;7.58;87.87;101373.22;4949088;28;10762;-65
2023/12/20 05:44:21;;;;;;;;;1.75;1.50;;;;;7.61;88.17;101373.72;4947112;28;10637;-65
2023/12/20 05:46:47;;;;;;;;;3.00;1.50;;;;;7.58;88.06;101371.38;4955777;28;10611;-65
2023/12/20 05:49:14;;;;;;;;;2.00;2.00;;;;;7.65;87.53;101372.38;4952267;28;10645;-65
2023/12/20 05:51:41;;;;;;;;;1.50;1.25;;;;;7.69;87.09;101379.09;4965769;28;10633;-65
2023/12/20 05:54:09;;;;;;;;;4.00;2.00;;;;;7.71;87.31;101364.72;4951919;28;10727;-65
2023/12/20 05:56:35;;;;;;;;;5.75;2.00;;;;;7.66;87.78;101376.75;4952138;28;10635;-65
2023/12/20 05:59:02;;;;;;;;;1.00;1.00;;;;;7.73;87.27;101376.94;4944971;28;10622;-65
2023/12/20 06:01:28;;;;;;;;;2.75;2.00;;;;;7.73;87.35;101376.09;4946811;28;10600;-65
2023/12/20 06:03:55;;;;;;;;;3.00;2.00;;;;;7.74;87.60;101373.28;4966919;28;10394;-65
2023/12/20 06:06:22;;;;;;;;;4.00;2.00;;;;;7.78;87.38;101368.41;4934013;28;10573;-65
2023/12/20 06:08:48;;;;;;;;;5.50;4.00;;;;;7.75;87.17;101371.44;4952045;28;10657;-65
2023/12/20 06:11:15;;;;;;;;;6.00;2.00;;;;;7.63;87.71;101366.38;4939077;28;10719;-65
2023/12/20 06:13:41;;;;;;;;;2.00;2.00;;;;;7.56;87.61;101359.97;4950026;28;10612;-65
2023/12/20 06:16:08;;;;;;;;;5.75;4.50;;;;;7.60;87.83;101364.00;4948061;28;11393;-66
2023/12/20 06:18:36;;;;;;;;;3.00;2.00;;;;;7.63;87.62;101352.13;4952078;29;10585;-65
2023/12/20 06:21:03;;;;;;;;;4.00;2.50;;;;;7.71;88.01;101375.44;4951615;28;10455;-65
2023/12/20 06:23:30;;;;;;;;;6.00;2.75;;;;;7.71;87.57;101362.88;4951589;28;10488;-65
2023/12/20 06:25:56;;;;;;;;;6.50;4.50;;;;;7.66;88.00;101367.88;4949714;28;10403;-65
2023/12/20 06:28:23;;;;;;;;;6.25;4.50;;;;;7.63;87.72;101366.38;4949416;28;10634;-65
2023/12/20 06:30:51;;;;;;;;;3.00;3.00;;;;;7.56;88.04;101354.59;4947378;28;10828;-65
2023/12/20 06:33:18;;;;;;;;;1.00;1.00;;;;;7.60;88.37;101349.78;4957375;28;10619;-65
2023/12/20 06:35:45;;;;;;;;;3.00;2.00;;;;;7.74;88.12;101351.84;4950415;28;10413;-65
2023/12/20 06:38:11;;;;;;;;;4.25;3.25;;;;;7.79;87.37;101354.84;4957191;28;10667;-65
2023/12/20 06:40:38;;;;;;;;;6.00;4.00;;;;;7.77;87.87;101356.00;4949201;28;10654;-65
2023/12/20 06:43:06;;;;;;;;;1.25;1.25;;;;;7.69;87.81;101356.81;4953433;28;10662;-65
2023/12/20 06:45:46;;;;;;;;;9.00;5.25;;;;;7.75;88.00;101358.03;4946102;28;10583;-65
2023/12/20 06:48:13;;;;;;;;;5.00;3.00;;;;;7.73;88.19;101363.53;4944252;29;10724;-65
2023/12/20 06:50:40;;;;;;;;;4.00;2.50;;;;;7.76;87.85;101357.84;4951591;28;10709;-65
2023/12/20 06:53:06;;;;;;;;;2.75;2.50;;;;;7.79;87.96;101351.34;4953414;28;10778;-65
2023/12/20 06:55:36;;;;;;;;;6.00;2.75;;;;;7.79;87.59;101349.50;4955303;28;10652;-65
2023/12/20 06:58:02;;;;;;;;;2.75;2.00;;;;;7.75;87.53;101352.66;4955014;28;10580;-65
2023/12/20 07:00:30;;;;;;;;;2.75;2.75;;;;;7.74;87.80;101350.97;4954773;28;10538;-65
2023/12/20 07:02:56;;;;;;;;;6.75;5.00;;;;;7.79;87.71;101351.34;4955229;28;10552;-65
2023/12/20 07:05:23;;;;;;;;;1.75;1.00;;;;;7.75;87.70;101347.31;4952347;28;10506;-66
2023/12/20 07:07:49;;;;;;;;;5.00;5.00;;;;;7.80;88.00;101345.81;4951756;28;10496;-65
2023/12/20 07:10:16;;;;;;;;;5.50;4.50;;;;;7.82;87.81;101348.31;4950748;28;11422;-65
2023/12/20 07:12:43;;;;;;;;;6.75;3.00;;;;;7.86;87.68;101337.13;4951197;28;11224;-65
2023/12/20 07:15:11;;;;;;;;;7.75;5.00;;;;;7.87;87.41;101337.97;4953600;28;11214;-65
2023/12/20 07:17:37;;;;;;;;;4.00;2.75;;;;;7.87;87.67;101329.91;4955076;28;10397;-65
2023/12/20 07:20:06;;;;;;;;;5.00;2.75;;;;;7.85;87.91;101330.06;4953676;28;10691;-65
2023/12/20 07:22:33;;;;;;;;;5.00;2.75;;;;;7.86;87.86;101331.78;4954810;28;10477;-65
2023/12/20 07:25:00;;;;;;;;;3.25;2.00;;;;;7.81;87.88;101323.34;4953597;28;10455;-65
2023/12/20 07:27:27;;;;;;;;;2.00;1.25;;;;;7.84;87.64;101331.06;4954780;28;10612;-65
2023/12/20 07:29:53;;;;;;;;;5.00;3.00;;;;;7.85;87.76;101330.06;4954922;28;10470;-65
2023/12/20 07:32:20;;;;;;;;;6.50;2.25;;;;;7.86;87.76;101322.88;4954674;28;11162;-65
2023/12/20 07:34:47;;;;;;;;;2.25;2.25;;;;;7.90;87.52;101332.28;4954356;28;10650;-65
2023/12/20 07:37:14;;;;;;;;;5.00;2.75;;;;;7.83;88.33;101339.28;4954754;28;10537;-65
2023/12/20 07:39:41;;;;;;;;;7.00;5.00;;;;;7.77;88.05;101331.91;4954627;28;10337;-65
2023/12/20 07:42:08;;;;;;;;;2.00;2.00;;;;;7.85;87.99;101340.78;4954876;28;10556;-65
2023/12/20 07:44:38;;;;;;;;;5.00;3.00;;;;;7.88;87.73;101353.88;4954351;28;10504;-65
2023/12/20 07:47:05;;;;;;;;;5.50;3.50;;;;;7.90;87.32;101359.91;4954617;28;10621;-65
2023/12/20 07:49:31;;;;;;;;;1.75;1.75;;;;;7.89;87.61;101360.91;4953243;28;10566;-65
2023/12/20 07:51:58;;;;;;;;;2.75;2.00;;;;;7.90;87.23;101364.44;4953416;28;10620;-65
2023/12/20 07:54:25;;;;;;;;;5.75;4.50;;;;;7.97;87.58;101372.66;4954279;28;11347;-66
2023/12/20 07:56:51;;;;;;;;;3.00;1.25;;;;;7.95;87.20;101374.66;4953049;28;10698;-66
2023/12/20 07:59:17;;;;;;;;;3.50;3.00;;;;;7.91;87.81;101374.16;4954461;28;10609;-65
2023/12/20 08:01:57;;;;;;;;;3.75;2.75;;;;;7.90;87.45;101376.00;4953061;28;10617;-65
2023/12/20 08:04:24;;;;;;;;;5.50;2.75;;;;;7.91;87.57;101374.16;4954328;28;10571;-65
2023/12/20 08:06:51;;;;;;;;;6.00;2.00;;;;;7.89;88.02;101366.25;4952926;28;10500;-65
2023/12/20 08:09:17;;;;;;;;;1.25;1.00;;;;;7.92;88.22;101363.25;4954125;28;10578;-65
2023/12/20 08:11:47;;;;;;;;;2.75;2.00;;;;;7.97;87.69;101357.41;4954917;28;10477;-66
2023/12/20 08:14:15;;;;;;;;;2.00;2.00;;;;;8.02;87.30;101356.91;4952365;28;10459;-65
2023/12/20 08:16:42;;;;;;;;;3.00;3.00;;;;;8.07;87.74;101350.06;4953820;28;10506;-66
2023/12/20 08:19:08;;;;;;;;;1.75;0.75;;;;;8.09;87.06;101364.13;4954334;28;10464;-64
2023/12/20 08:21:35;;;;;;;;;1.75;1.00;;;;;8.08;87.48;101359.78;4952337;28;10395;-64
2023/12/20 08:24:05;;;;;;;;;5.00;2.75;;;;;8.04;87.72;101352.22;4953682;28;10216;-66
2023/12/20 08:26:32;;;;;;;;;2.00;2.00;;;;;8.08;87.25;101356.25;4953693;28;10428;-64
2023/12/20 08:28:59;;;;;;;;;5.75;4.00;;;;;8.04;88.03;101345.03;4953896;28;10321;-62
2023/12/20 08:31:28;;;;;;;;;3.50;2.00;;;;;8.03;87.51;101354.06;4953332;28;10260;-65
2023/12/20 08:33:55;;;;;;;;;4.00;4.00;;;;;8.11;87.64;101350.56;4953794;28;10512;-66
2023/12/20 08:36:23;;;;;;;;;4.00;3.00;;;;;8.15;87.39;101349.22;4953470;28;10516;-65
2023/12/20 08:38:50;;;;;;;;;3.50;2.25;;;;;8.23;87.06;101362.66;4953431;28;10333;-65
2023/12/20 08:41:17;;;;;;;;;2.00;2.00;;;;;8.13;87.45;101359.28;4953586;28;10411;-65
2023/12/20 08:43:44;;;;;;;;;4.00;2.50;;;;;8.13;87.30;101368.16;4952209;28;10433;-64
2023/12/20 08:46:11;;;;;;;;;3.00;2.50;;;;;8.02;87.68;101360.44;4953220;28;10419;-66
2023/12/20 08:48:38;;;;;;;;;3.00;3.00;;;;;8.09;87.10;101374.00;4951809;28;10443;-65
2023/12/20 08:51:07;;;;;;;;;4.00;3.00;;;;;8.08;87.37;101380.38;4952400;28;11144;-64
2023/12/20 08:53:33;;;;;;;;;2.00;2.00;;;;;8.10;87.22;101367.63;4953322;28;10319;-64
2023/12/20 08:56:01;;;;;;;;;2.00;2.00;;;;;8.14;87.02;101363.63;4952532;28;10337;-65
2023/12/20 08:58:28;;;;;;;;;3.00;2.00;;;;;8.12;86.93;101362.97;4952994;28;10375;-64
2023/12/20 09:00:54;;;;;;;;;6.00;2.00;;;;;8.16;87.13;101357.09;4952977;28;10416;-64
2023/12/20 09:03:21;;;;;;;;;7.25;2.00;;;;;8.21;87.07;101361.97;4952478;28;10515;-66
2023/12/20 09:05:47;;;;;;;;;5.00;2.00;;;;;8.18;87.26;101356.94;4952124;28;10396;-64
2023/12/20 09:08:14;;;;;;;;;5.25;2.00;;;;;8.14;87.40;101332.31;4952953;28;10501;-65
2023/12/20 09:10:40;;;;;;;;;1.00;1.00;;;;;8.13;87.70;101337.81;4952350;28;10352;-64
2023/12/20 09:13:07;;;;;;;;;1.75;1.75;;;;;8.18;87.71;101338.16;4952665;28;10250;-64
2023/12/20 09:15:34;;;;;;;;;2.25;0.75;;;;;8.24;87.36;101342.88;4952265;28;10355;-64
2023/12/20 09:18:03;;;;;;;;;3.00;1.00;;;;;8.24;87.55;101350.06;4952805;28;10429;-64
2023/12/20 09:20:30;;;;;;;;;6.75;3.75;;;;;8.17;87.22;101342.69;4952332;28;10363;-64
2023/12/20 09:22:57;;;;;;;;;5.75;3.00;;;;;8.21;87.40;101353.91;4933737;29;10352;-65
2023/12/20 09:25:25;;;;;;;;;4.25;3.50;;;;;8.29;87.45;101356.59;4931782;29;10485;-65
2023/12/20 09:27:52;;;;;;;;;4.00;3.00;;;;;8.22;87.73;101349.38;4933610;29;10416;-65
2023/12/20 09:30:19;;;;;;;;;5.25;4.50;;;;;8.24;87.43;101345.53;4939729;28;10395;-65
2023/12/20 09:32:54;;;;;;;;;2.00;2.00;;;;;8.17;87.80;101349.91;4952564;28;10340;-65
2023/12/20 09:35:20;;;;;;;;;4.75;3.00;;;;;8.26;87.49;101362.28;4951466;28;10488;-66
2023/12/20 09:37:48;;;;;;;;;7.00;2.00;;;;;8.24;87.28;101358.13;4950676;28;10266;-65
2023/12/20 09:40:18;;;;;;;;;5.25;2.00;;;;;8.31;87.79;101351.94;4951809;28;10683;-65
2023/12/20 09:42:57;;;;;;;;;2.00;2.00;;;;;8.29;87.31;101355.78;4952572;28;11125;-65
2023/12/20 09:45:24;;;;;;;;;2.00;1.50;;;;;8.35;86.85;101355.97;4951719;28;10523;-66
2023/12/20 09:47:54;;;;;;;;;5.25;4.00;;;;;8.40;87.21;101372.41;4952312;28;11116;-65
2023/12/20 09:50:22;;;;;;;;;1.50;1.00;;;;;8.37;86.90;101363.84;4951666;28;10570;-65
2023/12/20 09:52:53;;;;;;;;;6.50;3.00;;;;;8.26;87.09;101366.81;4951745;28;10332;-66
2023/12/20 09:55:21;;;;;;;;;5.00;3.00;;;;;8.32;87.81;101376.91;4952021;28;10493;-65
2023/12/20 09:57:49;;;;;;;;;7.25;5.25;;;;;8.30;87.60;101379.72;4952272;28;11298;-63
2023/12/20 10:00:19;;;;;;;;;4.50;2.75;;;;;8.36;87.20;101372.88;4952258;28;10485;-65
2023/12/20 10:02:59;;;;;;;;;3.00;2.00;;;;;8.42;86.57;101366.88;4952129;28;10353;-65
2023/12/20 10:05:31;;;;;;;;;5.75;2.00;;;;;8.33;86.81;101376.72;4951543;28;10499;-65
2023/12/20 10:07:59;;;;;;;;;0.00;0.00;;;;;8.29;87.34;101367.34;4952042;28;10403;-64
2023/12/20 10:10:27;;;;;;;;;3.75;2.00;;;;;8.37;87.13;101372.75;4951340;28;10267;-64
2023/12/20 10:13:10;;;;;;;;;1.00;1.00;;;;;8.36;86.64;101367.53;4950802;28;10337;-63
2023/12/20 10:15:38;;;;;;;;;2.00;2.00;;;;;8.36;86.63;101356.78;4951811;28;10244;-67
2023/12/20 10:18:05;;;;;;;;;1.00;1.00;;;;;8.36;86.85;101367.53;4952129;28;10422;-65
2023/12/20 10:20:32;;;;;;;;;7.75;1.00;;;;;8.40;87.08;101368.91;4950637;29;10417;-66
2023/12/20 10:23:00;;;;;;;;;1.75;1.75;;;;;8.47;87.13;101363.69;4951694;28;10352;-65
2023/12/20 10:25:27;;;;;;;;;3.50;2.00;;;;;8.44;87.15;101370.25;4954377;28;10465;-63
2023/12/20 10:28:23;;;;;;;;;1.50;1.25;;;;;8.52;86.90;101369.41;4955864;28;10277;-66
2023/12/20 10:30:49;;;;;;;;;2.25;1.75;;;;;8.62;85.71;101365.53;4952683;28;10286;-64
2023/12/20 10:33:32;;;;;;;;;1.50;1.00;;;;;8.63;85.43;101374.44;4955977;28;11199;-64
2023/12/20 10:35:59;;;;;;;;;3.25;1.25;;;;;8.66;84.79;101361.50;4955413;28;10385;-64
2023/12/20 10:38:26;;;;;;;;;2.00;2.00;;;;;8.73;84.32;101350.09;4953870;28;10414;-65
2023/12/20 10:41:00;;;;;;;;;2.00;2.00;;;;;8.69;84.57;101348.75;4955508;28;10354;-65
2023/12/20 10:43:28;;;;;;;;;5.00;4.75;;;;;8.80;84.63;101361.84;4955637;28;10413;-65
2023/12/20 10:45:56;;;;;;;;;2.75;2.00;;;;;8.88;84.29;101353.78;4955687;28;10461;-65
2023/12/20 10:48:28;;;;;;;;;3.50;2.00;;;;;8.77;84.73;101343.38;4955597;28;10335;-66
2023/12/20 10:50:56;;;;;;;;;2.25;1.75;;;;;8.79;84.48;101341.34;4954191;28;10538;-66
2023/12/20 10:53:24;;;;;;;;;3.00;2.00;;;;;8.87;84.72;101339.50;4954386;28;10228;-65
2023/12/20 10:55:55;;;;;;;;;6.50;3.00;;;;;8.91;84.45;101334.63;4954711;28;10500;-64
2023/12/20 10:58:22;;;;;;;;;2.00;1.75;;;;;9.00;83.81;101328.25;4954072;28;10249;-65
2023/12/20 11:00:54;;;;;;;;;4.00;2.75;;;;;9.06;83.50;101324.84;4955138;28;10369;-66
2023/12/20 11:03:24;;;;;;;;;3.50;3.50;;;;;9.09;83.38;101335.25;4954184;28;10843;-65
2023/12/20 11:06:01;;;;;;;;;2.00;2.00;;;;;9.09;83.69;101327.19;4954895;28;10335;-62
2023/12/20 11:08:38;;;;;;;;;5.50;3.00;;;;;9.09;83.28;101339.78;4955218;28;10242;-65
2023/12/20 11:11:34;;;;;;;;;2.00;2.00;;;;;9.08;83.35;101330.06;4953232;28;10194;-64
2023/12/20 11:14:08;;;;;;;;;1.25;1.25;;;;;8.95;83.96;101327.06;4954850;28;10252;-65
2023/12/20 11:16:38;;;;;;;;;4.25;2.25;;;;;8.97;83.57;101331.25;4954623;28;10462;-64
2023/12/20 11:19:17;;;;;;;;;2.50;2.50;;;;;9.01;83.79;101327.22;4955220;28;10282;-64
2023/12/20 11:21:46;;;;;;;;;0.00;0.00;;;;;9.04;84.13;101334.94;4953718;28;10410;-65
2023/12/20 11:24:12;;;;;;;;;4.50;2.00;;;;;8.85;84.77;101327.25;4954202;28;10280;-64
2023/12/20 11:26:47;;;;;;;;;5.75;2.00;;;;;8.80;84.92;101335.00;4954915;28;10280;-64
2023/12/20 11:29:33;;;;;;;;;2.00;2.00;;;;;8.84;84.99;101322.91;4954675;28;10375;-66
2023/12/20 11:32:01;;;;;;;;;1.75;1.00;;;;;8.81;85.00;101326.75;4954670;28;10318;-65
2023/12/20 11:34:31;;;;;;;;;3.00;2.00;;;;;8.95;84.43;101319.84;4954873;28;10168;-65
2023/12/20 11:36:59;;;;;;;;;4.75;2.00;;;;;8.99;84.24;101317.66;4953131;28;10234;-65